createdAt,value
2022-08-08T00:02:31.095Z,8.57
2022-08-08T00:07:35.144Z,7.20
2022-08-08T00:12:56.772Z,8.68
2022-08-08T00:18:06.379Z,7.30
2022-08-08T00:23:16.529Z,8.32
2022-08-08T00:28:35.366Z,9.73
2022-08-08T00:34:17.145Z,7.05
2022-08-08T00:41:07.146Z,9.75
2022-08-08T00:44:59.712Z,7.70
2022-08-08T00:50:52.436Z,7.43
2022-08-08T00:56:30.080Z,9.27
2022-08-08T01:01:52.464Z,8.88
2022-08-08T01:07:55.626Z,8.38
2022-08-08T01:14:01.092Z,8.68
2022-08-08T01:20:01.870Z,8.45
2022-08-08T01:25:42.752Z,8.70
2022-08-08T01:32:13.904Z,9.20
2022-08-08T01:37:58.121Z,10.07
2022-08-08T01:43:38.442Z,9.07
2022-08-08T01:48:59.526Z,9.75
2022-08-08T01:55:25.695Z,8.27
2022-08-08T02:00:04.870Z,9.35
2022-08-08T02:05:56.485Z,10.38
2022-08-08T02:11:23.556Z,7.85
2022-08-08T02:16:49.185Z,9.00
2022-08-08T02:22:28.413Z,8.55
2022-08-08T02:27:42.464Z,11.13
2022-08-08T02:33:41.508Z,10.52
2022-08-08T02:39:41.800Z,9.23
2022-08-08T02:45:04.035Z,8.52
2022-08-08T02:50:42.087Z,7.80
2022-08-08T02:56:36.147Z,8.23
2022-08-08T03:02:20.203Z,8.00
2022-08-08T03:08:02.183Z,7.38
2022-08-08T03:15:56.776Z,7.10
2022-08-08T03:19:37.443Z,9.60
2022-08-08T03:24:43.431Z,10.52
2022-08-08T03:29:55.673Z,9.73
2022-08-08T03:35:05.774Z,8.20
2022-08-08T03:40:29.636Z,9.43
2022-08-08T03:46:05.067Z,8.20
2022-08-08T03:51:01.106Z,9.73
2022-08-08T03:56:09.470Z,9.10
2022-08-08T04:01:24.283Z,8.85
2022-08-08T04:06:30.782Z,10.00
2022-08-08T04:11:48.405Z,9.00
2022-08-08T04:17:22.501Z,9.10
2022-08-08T04:22:34.273Z,8.77
2022-08-08T04:28:02.377Z,10.32
2022-08-08T04:33:03.466Z,12.43
2022-08-08T04:38:09.605Z,8.25
2022-08-08T04:43:18.629Z,7.57
2022-08-08T04:48:29.717Z,7.70
2022-08-08T04:54:36.234Z,8.48
2022-08-08T04:59:00.556Z,10.95
2022-08-08T05:04:11.562Z,7.97
2022-08-08T05:09:18.993Z,7.88
2022-08-08T05:14:24.937Z,7.22
2022-08-08T05:20:09.195Z,8.90
2022-08-08T05:25:03.752Z,7.20
2022-08-08T05:30:10.901Z,10.02
2022-08-08T05:35:23.745Z,9.30
2022-08-08T05:40:31.153Z,6.38
2022-08-08T05:45:43.200Z,7.85
2022-08-08T05:50:59.093Z,8.13
2022-08-08T05:56:17.975Z,6.00
2022-08-08T06:01:51.185Z,7.82
2022-08-08T06:06:50.420Z,8.63
2022-08-08T06:11:54.853Z,5.43
2022-08-08T06:17:02.593Z,5.20
2022-08-08T06:27:48.889Z,6.00
2022-08-08T06:32:56.847Z,7.45
2022-08-08T06:38:09.325Z,6.28
2022-08-08T06:43:28.826Z,8.85
2022-08-08T06:48:42.415Z,5.88
2022-08-08T06:53:50.883Z,7.32
2022-08-08T06:59:09.988Z,3.53
2022-08-08T07:04:38.966Z,4.60
2022-08-08T07:10:00.038Z,5.35
2022-08-08T07:15:23.162Z,4.18
2022-08-08T07:20:40.478Z,6.97
2022-08-08T07:25:54.401Z,4.90
2022-08-08T07:31:00.501Z,6.60
2022-08-08T07:36:08.497Z,3.40
2022-08-08T07:41:23.529Z,4.18
2022-08-08T07:46:30.791Z,4.13
2022-08-08T07:51:53.633Z,7.15
2022-08-08T07:57:17.401Z,4.60
2022-08-08T08:02:38.588Z,3.92
2022-08-08T08:07:53.055Z,3.42
2022-08-08T08:13:25.931Z,2.92
2022-08-08T08:18:51.846Z,2.53
2022-08-08T08:24:02.784Z,3.85
2022-08-08T08:29:08.023Z,5.97
2022-08-08T08:34:21.253Z,6.35
2022-08-08T08:39:59.466Z,2.33
2022-08-08T08:44:51.203Z,5.95
2022-08-08T08:49:54.883Z,4.18
2022-08-08T08:55:02.349Z,3.33
2022-08-08T09:00:17.064Z,3.63
2022-08-08T09:05:48.884Z,4.07
2022-08-08T09:10:48.944Z,3.90
2022-08-08T09:16:02.823Z,4.35
2022-08-08T09:22:00.863Z,4.05
2022-08-08T09:26:49.675Z,3.42
2022-08-08T09:32:02.150Z,3.45
2022-08-08T09:37:57.138Z,3.17
2022-08-08T09:42:51.785Z,2.30
2022-08-08T09:48:03.875Z,1.48
2022-08-08T09:53:31.905Z,2.35
2022-08-08T09:58:57.880Z,4.85
2022-08-08T10:04:05.247Z,3.60
2022-08-08T10:09:10.152Z,4.13
2022-08-08T10:14:27.576Z,2.35
2022-08-08T10:19:57.816Z,3.47
2022-08-08T10:25:05.815Z,3.53
2022-08-08T10:30:16.628Z,4.13
2022-08-08T10:36:19.921Z,3.80
2022-08-08T10:41:03.427Z,4.57
2022-08-08T10:46:29.604Z,3.28
2022-08-08T10:51:47.486Z,2.53
2022-08-08T10:56:58.351Z,1.77
2022-08-08T11:02:04.484Z,2.90
2022-08-08T11:07:40.746Z,5.57
2022-08-08T11:12:38.425Z,3.58
2022-08-08T11:18:00.915Z,2.97
2022-08-08T11:23:06.018Z,3.88
2022-08-08T11:28:12.444Z,2.38
2022-08-08T11:33:19.231Z,2.85
2022-08-08T11:38:38.509Z,3.40
2022-08-08T11:43:49.086Z,2.75
2022-08-08T11:48:55.052Z,1.83
2022-08-08T11:54:01.073Z,2.58
2022-08-08T11:59:09.824Z,1.63
2022-08-08T12:04:14.892Z,1.40
2022-08-08T12:09:19.090Z,4.68
2022-08-08T12:14:28.944Z,2.97
2022-08-08T12:19:37.632Z,1.30
2022-08-08T12:24:56.540Z,1.45
2022-08-08T12:30:01.882Z,4.10
2022-08-08T12:35:17.632Z,2.42
2022-08-08T12:40:24.562Z,1.00
2022-08-08T12:45:59.644Z,3.55
2022-08-08T12:50:59.769Z,3.15
2022-08-08T12:56:18.667Z,3.05
2022-08-08T13:01:37.553Z,2.70
2022-08-08T13:06:54.183Z,1.05
2022-08-08T13:12:24.529Z,3.40
2022-08-08T13:18:07.723Z,2.25
2022-08-08T13:22:47.754Z,2.63
2022-08-08T13:27:54.710Z,5.60
2022-08-08T13:33:01.415Z,1.73
2022-08-08T13:38:08.434Z,2.88
2022-08-08T13:43:16.995Z,1.67
2022-08-08T13:48:25.858Z,1.02
2022-08-08T13:53:36.131Z,1.48
2022-08-08T13:58:57.263Z,1.98
2022-08-08T14:04:03.288Z,1.45
2022-08-08T14:09:25.228Z,4.10
2022-08-08T14:14:39.643Z,3.33
2022-08-08T14:19:57.464Z,2.92
2022-08-08T14:25:15.295Z,1.98
2022-08-08T14:30:20.982Z,0.95
2022-08-08T14:35:35.325Z,1.80
2022-08-08T14:40:43.291Z,4.82
2022-08-08T14:46:02.409Z,1.17
2022-08-08T14:51:07.922Z,2.80
2022-08-08T14:56:16.510Z,2.15
2022-08-08T15:01:23.836Z,3.72
2022-08-08T15:06:31.292Z,3.08
2022-08-08T15:11:39.354Z,1.40
2022-08-08T15:16:49.688Z,3.85
2022-08-08T15:21:52.689Z,3.03
2022-08-08T15:26:58.884Z,1.42
2022-08-08T15:32:30.524Z,2.00
2022-08-08T15:37:35.073Z,1.00
2022-08-08T15:42:40.075Z,2.13
2022-08-08T15:48:05.382Z,2.22
2022-08-08T15:53:06.094Z,2.08
2022-08-08T15:58:11.746Z,2.20
2022-08-08T16:03:15.123Z,2.30
2022-08-08T16:08:20.361Z,1.73
2022-08-08T16:13:34.314Z,2.75
2022-08-08T16:18:57.089Z,1.58
2022-08-08T16:24:02.681Z,3.38
2022-08-08T16:29:09.266Z,1.42
2022-08-08T16:34:13.084Z,2.97
2022-08-08T16:39:48.987Z,1.63
2022-08-08T16:44:42.721Z,2.15
2022-08-08T16:49:58.441Z,2.72
2022-08-08T16:55:34.290Z,2.70
2022-08-08T17:00:29.396Z,3.35
2022-08-08T17:05:45.151Z,1.42
2022-08-08T17:10:58.075Z,6.32
2022-08-08T17:16:15.005Z,1.90
2022-08-08T17:21:19.175Z,1.92
2022-08-08T17:26:28.835Z,1.50
2022-08-08T17:31:44.334Z,1.50
2022-08-08T17:37:00.889Z,1.95
2022-08-08T17:42:06.973Z,1.90
2022-08-08T17:47:24.062Z,1.13
2022-08-08T17:52:30.689Z,1.05
2022-08-08T17:57:35.533Z,4.07
2022-08-08T18:02:41.009Z,2.90
2022-08-08T18:08:02.761Z,1.85
2022-08-08T18:13:07.418Z,2.50
2022-08-08T18:18:28.473Z,1.55
2022-08-08T18:23:33.032Z,0.82
2022-08-08T18:28:55.006Z,1.98
2022-08-08T18:34:25.039Z,2.67
2022-08-08T18:39:27.834Z,0.68
2022-08-08T18:44:34.788Z,3.05
2022-08-08T18:49:57.768Z,2.30
2022-08-08T18:55:10.729Z,3.45
2022-08-08T19:00:20.511Z,3.55
2022-08-08T19:05:34.751Z,2.80
2022-08-08T19:10:42.772Z,1.42
2022-08-08T19:15:47.210Z,2.10
2022-08-08T19:20:56.343Z,2.20
2022-08-08T19:26:19.778Z,2.22
2022-08-08T19:31:22.941Z,1.58
2022-08-08T19:36:36.314Z,5.40
2022-08-08T19:41:41.351Z,1.75
2022-08-08T19:46:44.790Z,2.53
2022-08-08T19:51:49.521Z,3.60
2022-08-08T19:56:52.564Z,1.02
2022-08-08T20:02:02.977Z,3.90
2022-08-08T20:08:29.074Z,1.63
2022-08-08T20:12:35.854Z,2.05
2022-08-08T20:17:40.691Z,2.25
2022-08-08T20:22:46.428Z,1.90
2022-08-08T20:27:54.062Z,4.15
2022-08-08T20:32:57.340Z,3.75
2022-08-08T20:38:01.816Z,1.48
2022-08-08T20:43:16.184Z,2.38
2022-08-08T20:48:28.208Z,3.15
2022-08-08T20:53:59.755Z,4.45
2022-08-08T20:58:56.124Z,1.60
2022-08-08T21:04:00.095Z,4.18
2022-08-08T21:09:06.228Z,2.60
2022-08-08T21:14:09.327Z,4.75
2022-08-08T21:19:13.918Z,3.03
2022-08-08T21:24:30.304Z,3.45
2022-08-08T21:30:05.605Z,3.53
2022-08-08T21:36:13.819Z,6.25
2022-08-08T21:40:31.334Z,3.03
2022-08-08T21:47:59.456Z,2.78
2022-08-08T21:50:58.265Z,3.45
2022-08-08T21:56:26.630Z,3.85
2022-08-08T22:01:38.977Z,3.42
2022-08-08T22:06:43.887Z,4.22
2022-08-08T22:12:02.136Z,2.25
2022-08-08T22:17:08.671Z,2.40
2022-08-08T22:22:13.977Z,2.85
2022-08-08T22:27:18.328Z,2.00
2022-08-08T22:32:41.563Z,1.90
2022-08-08T22:37:53.867Z,2.35
2022-08-08T22:42:59.383Z,3.47
2022-08-08T22:48:02.471Z,2.60
2022-08-08T22:54:28.402Z,3.17
2022-08-08T22:58:34.627Z,2.40
2022-08-08T23:03:53.143Z,4.68
2022-08-08T23:09:00.234Z,3.30
2022-08-08T23:14:05.076Z,4.68
2022-08-08T23:19:08.924Z,5.30
2022-08-08T23:24:12.127Z,2.47
2022-08-08T23:29:16.507Z,3.55
2022-08-08T23:34:20.795Z,4.07
2022-08-08T23:39:25.818Z,4.60
2022-08-08T23:44:38.618Z,5.25
2022-08-08T23:49:42.337Z,10.55
2022-08-08T23:55:00.065Z,3.50
